createdAt,value
2022-07-29T00:01:20.646Z,99.70
2022-07-29T00:03:49.184Z,99.10
2022-07-29T00:06:17.345Z,99.70
2022-07-29T00:08:45.408Z,98.50
2022-07-29T00:11:14.891Z,98.60
2022-07-29T00:13:46.424Z,98.40
2022-07-29T00:16:17.403Z,98.40
2022-07-29T00:18:45.500Z,97.80
2022-07-29T00:21:13.502Z,98.10
2022-07-29T00:23:41.626Z,98.00
2022-07-29T00:26:09.638Z,99.10
2022-07-29T00:28:39.130Z,99.00
2022-07-29T00:31:07.427Z,99.90
2022-07-29T00:33:35.531Z,99.90
2022-07-29T00:36:02.593Z,99.90
2022-07-29T00:38:30.538Z,99.90
2022-07-29T00:40:58.539Z,99.90
2022-07-29T00:43:26.570Z,99.90
2022-07-29T00:45:55.975Z,99.90
2022-07-29T00:48:24.063Z,99.80
2022-07-29T00:50:52.541Z,99.90
2022-07-29T00:53:22.085Z,99.90
2022-07-29T00:55:50.213Z,99.90
2022-07-29T00:58:20.494Z,99.90
2022-07-29T01:00:48.546Z,99.90
2022-07-29T01:03:18.192Z,99.90
2022-07-29T01:05:50.576Z,99.90
2022-07-29T01:08:20.864Z,99.90
2022-07-29T01:10:49.823Z,99.90
2022-07-29T01:13:19.379Z,99.90
2022-07-29T01:15:53.124Z,99.90
2022-07-29T01:18:30.455Z,99.90
2022-07-29T01:21:18.405Z,99.90
2022-07-29T01:24:01.982Z,99.90
2022-07-29T01:26:47.303Z,99.90
2022-07-29T01:29:26.486Z,99.90
2022-07-29T01:32:07.734Z,99.90
2022-07-29T01:34:43.312Z,99.90
2022-07-29T01:37:21.010Z,99.90
2022-07-29T01:39:51.193Z,99.90
2022-07-29T01:42:29.735Z,99.90
2022-07-29T01:45:03.813Z,99.90
2022-07-29T01:47:39.204Z,99.90
2022-07-29T01:50:12.225Z,99.90
2022-07-29T01:52:51.604Z,99.90
2022-07-29T01:55:21.915Z,99.90
2022-07-29T01:57:50.853Z,99.90
2022-07-29T02:00:20.941Z,99.90
2022-07-29T02:02:51.040Z,99.90
2022-07-29T02:05:22.371Z,99.90
2022-07-29T02:07:51.596Z,99.90
2022-07-29T02:10:25.729Z,99.90
2022-07-29T02:12:56.279Z,99.90
2022-07-29T02:15:27.687Z,99.90
2022-07-29T02:18:00.328Z,99.90
2022-07-29T02:20:29.839Z,99.90
2022-07-29T02:22:59.376Z,99.90
2022-07-29T02:25:37.278Z,99.90
2022-07-29T02:28:08.184Z,99.90
2022-07-29T02:30:41.495Z,99.90
2022-07-29T02:33:12.127Z,99.90
2022-07-29T02:35:42.366Z,99.90
2022-07-29T02:38:31.652Z,99.90
2022-07-29T02:41:02.167Z,99.90
2022-07-29T02:43:32.045Z,99.90
2022-07-29T02:46:02.872Z,99.90
2022-07-29T02:48:39.352Z,99.90
2022-07-29T02:51:10.846Z,99.90
2022-07-29T02:54:01.723Z,99.90
2022-07-29T02:56:35.792Z,99.90
2022-07-29T02:59:08.189Z,99.90
2022-07-29T03:01:41.003Z,99.90
2022-07-29T03:04:11.539Z,99.90
2022-07-29T03:06:41.341Z,99.90
2022-07-29T03:09:13.280Z,99.90
2022-07-29T03:11:49.805Z,99.90
2022-07-29T03:14:21.193Z,99.90
2022-07-29T03:16:52.043Z,99.50
2022-07-29T03:19:21.214Z,99.40
2022-07-29T03:21:49.807Z,99.50
2022-07-29T03:24:33.387Z,99.80
2022-07-29T03:27:02.045Z,99.90
2022-07-29T03:29:33.712Z,99.50
2022-07-29T03:32:07.284Z,98.70
2022-07-29T03:34:37.220Z,99.10
2022-07-29T03:37:05.345Z,98.80
2022-07-29T03:39:37.269Z,99.00
2022-07-29T03:42:08.808Z,99.40
2022-07-29T03:44:38.228Z,99.20
2022-07-29T03:47:11.201Z,98.80
2022-07-29T03:49:41.211Z,98.70
2022-07-29T03:52:09.796Z,98.60
2022-07-29T03:54:37.942Z,98.30
2022-07-29T03:57:08.654Z,98.00
2022-07-29T03:59:37.436Z,98.50
2022-07-29T04:02:10.435Z,98.10
2022-07-29T04:04:38.704Z,98.40
2022-07-29T04:07:07.165Z,98.60
2022-07-29T04:09:35.147Z,98.80
2022-07-29T04:12:04.235Z,98.80
2022-07-29T04:14:34.222Z,99.00
2022-07-29T04:17:02.565Z,98.40
2022-07-29T04:19:32.320Z,98.30
2022-07-29T04:22:01.497Z,98.10
2022-07-29T04:24:29.660Z,98.40
2022-07-29T04:26:57.647Z,98.60
2022-07-29T04:29:25.651Z,94.70
2022-07-29T04:31:53.721Z,93.30
2022-07-29T04:34:21.851Z,91.60
2022-07-29T04:36:51.187Z,91.20
2022-07-29T04:39:23.061Z,91.30
2022-07-29T04:41:52.382Z,91.50
2022-07-29T04:44:27.662Z,91.70
2022-07-29T04:46:57.424Z,92.30
2022-07-29T04:49:25.483Z,93.20
2022-07-29T04:51:55.019Z,94.20
2022-07-29T04:54:23.058Z,94.80
2022-07-29T04:56:51.130Z,94.50
2022-07-29T04:59:19.087Z,93.70
2022-07-29T05:01:47.103Z,93.60
2022-07-29T05:04:15.352Z,93.70
2022-07-29T05:06:44.391Z,94.20
2022-07-29T05:09:13.768Z,93.80
2022-07-29T05:11:41.840Z,94.10
2022-07-29T05:14:09.817Z,93.30
2022-07-29T05:16:37.833Z,94.00
2022-07-29T05:19:08.597Z,93.20
2022-07-29T05:21:38.913Z,93.30
2022-07-29T05:24:07.823Z,92.10
2022-07-29T05:26:37.161Z,91.50
2022-07-29T05:29:05.208Z,90.60
2022-07-29T05:31:34.379Z,90.00
2022-07-29T05:34:02.440Z,90.10
2022-07-29T05:36:30.437Z,92.00
2022-07-29T05:38:58.583Z,91.60
2022-07-29T05:41:27.028Z,90.30
2022-07-29T05:43:56.339Z,90.80
2022-07-29T05:46:24.475Z,91.10
2022-07-29T05:48:52.640Z,91.30
2022-07-29T05:51:20.696Z,90.90
2022-07-29T05:53:48.707Z,88.50
2022-07-29T05:56:16.753Z,86.80
2022-07-29T05:58:44.690Z,86.80
2022-07-29T06:01:14.138Z,87.50
2022-07-29T06:03:42.423Z,88.70
2022-07-29T06:06:10.467Z,86.60
2022-07-29T06:08:38.964Z,85.60
2022-07-29T06:11:07.257Z,84.30
2022-07-29T06:13:35.245Z,84.50
2022-07-29T06:16:03.308Z,85.30
2022-07-29T06:18:32.688Z,83.30
2022-07-29T06:21:00.675Z,82.40
2022-07-29T06:23:28.683Z,81.80
2022-07-29T06:25:56.642Z,88.00
2022-07-29T06:28:24.635Z,74.00
2022-07-29T06:30:52.756Z,74.10
2022-07-29T06:33:20.936Z,74.40
2022-07-29T06:35:54.936Z,74.40
2022-07-29T06:38:31.161Z,72.70
2022-07-29T06:41:08.583Z,76.00
2022-07-29T06:43:50.082Z,74.80
2022-07-29T06:46:20.239Z,73.50
2022-07-29T06:48:49.520Z,67.80
2022-07-29T06:51:22.867Z,65.00
2022-07-29T06:53:59.525Z,67.40
2022-07-29T06:56:30.985Z,68.80
2022-07-29T06:58:58.999Z,62.90
2022-07-29T07:01:27.150Z,65.40
2022-07-29T07:03:55.215Z,68.10
2022-07-29T07:06:24.609Z,62.30
2022-07-29T07:08:52.650Z,63.80
2022-07-29T07:11:20.690Z,62.70
2022-07-29T07:13:48.711Z,65.40
2022-07-29T07:16:17.001Z,62.80
2022-07-29T07:18:46.150Z,64.40
2022-07-29T07:21:19.337Z,63.90
2022-07-29T07:23:48.964Z,63.50
2022-07-29T07:26:17.124Z,64.70
2022-07-29T07:28:45.191Z,65.20
2022-07-29T07:31:13.727Z,65.30
2022-07-29T07:33:41.778Z,62.20
2022-07-29T07:36:09.809Z,64.00
2022-07-29T07:38:37.816Z,63.50
2022-07-29T07:41:07.331Z,63.70
2022-07-29T07:43:35.294Z,63.40
2022-07-29T07:46:03.382Z,76.00
2022-07-29T07:48:31.419Z,63.00
2022-07-29T07:50:59.369Z,61.70
2022-07-29T07:53:27.364Z,64.30
2022-07-29T07:56:12.394Z,65.10
2022-07-29T07:58:42.106Z,62.50
2022-07-29T08:01:10.674Z,62.40
2022-07-29T08:03:39.789Z,58.70
2022-07-29T08:06:08.718Z,62.40
2022-07-29T08:08:36.749Z,60.80
2022-07-29T08:11:09.416Z,56.80
2022-07-29T08:13:39.283Z,56.30
2022-07-29T08:16:16.303Z,56.50
2022-07-29T08:18:45.736Z,54.40
2022-07-29T08:21:15.304Z,58.80
2022-07-29T08:23:54.390Z,57.90
2022-07-29T08:26:27.172Z,52.10
2022-07-29T08:28:55.159Z,53.80
2022-07-29T08:31:24.638Z,54.40
2022-07-29T08:33:52.651Z,52.80
2022-07-29T08:36:21.897Z,51.70
2022-07-29T08:38:50.537Z,48.50
2022-07-29T08:41:20.020Z,45.40
2022-07-29T08:43:48.471Z,49.20
2022-07-29T08:46:17.971Z,47.60
2022-07-29T08:48:48.077Z,44.50
2022-07-29T08:51:17.850Z,45.60
2022-07-29T08:53:49.037Z,42.80
2022-07-29T08:56:18.908Z,41.00
2022-07-29T08:58:50.720Z,44.50
2022-07-29T09:01:35.840Z,44.60
2022-07-29T09:04:11.896Z,41.50
2022-07-29T09:06:45.219Z,40.10
2022-07-29T09:09:14.559Z,38.90
2022-07-29T09:11:42.886Z,37.50
2022-07-29T09:14:12.913Z,36.00
2022-07-29T09:16:53.795Z,34.60
2022-07-29T09:19:25.438Z,34.60
2022-07-29T09:22:00.034Z,34.60
2022-07-29T09:24:44.253Z,35.70
2022-07-29T09:27:23.695Z,37.00
2022-07-29T09:29:59.410Z,32.30
2022-07-29T09:32:28.913Z,30.20
2022-07-29T09:35:18.171Z,33.30
2022-07-29T09:37:46.583Z,32.50
2022-07-29T09:40:17.781Z,33.20
2022-07-29T09:42:47.239Z,29.70
2022-07-29T09:45:27.587Z,30.90
2022-07-29T09:47:58.138Z,30.40
2022-07-29T09:50:37.632Z,31.10
2022-07-29T09:53:05.688Z,28.90
2022-07-29T09:55:33.811Z,27.30
2022-07-29T09:58:20.931Z,31.50
2022-07-29T10:00:51.753Z,30.00
2022-07-29T10:03:20.306Z,29.20
2022-07-29T10:06:06.893Z,29.30
2022-07-29T10:08:34.989Z,29.80
2022-07-29T10:11:12.842Z,32.00
2022-07-29T10:13:41.133Z,28.70
2022-07-29T10:16:09.342Z,28.90
2022-07-29T10:18:42.206Z,29.40
2022-07-29T10:21:34.895Z,28.10
2022-07-29T10:24:01.852Z,30.50
2022-07-29T10:26:31.422Z,27.90
2022-07-29T10:28:59.390Z,26.00
2022-07-29T10:31:35.670Z,27.20
2022-07-29T10:34:10.186Z,27.10
2022-07-29T10:36:52.907Z,24.80
2022-07-29T10:39:44.723Z,25.60
2022-07-29T10:42:20.362Z,25.90
2022-07-29T10:45:01.806Z,24.00
2022-07-29T10:47:29.980Z,25.30
2022-07-29T10:50:01.114Z,22.30
2022-07-29T10:52:58.649Z,23.20
2022-07-29T10:55:35.751Z,24.10
2022-07-29T10:58:14.594Z,24.90
2022-07-29T11:00:42.931Z,23.00
2022-07-29T11:03:49.257Z,22.90
2022-07-29T11:06:26.647Z,24.00
2022-07-29T11:09:25.862Z,22.50
2022-07-29T11:12:03.667Z,23.60
2022-07-29T11:15:07.923Z,26.60
2022-07-29T11:18:06.022Z,29.10
2022-07-29T11:20:39.533Z,35.10
2022-07-29T11:23:25.399Z,37.80
2022-07-29T11:26:18.747Z,51.20
2022-07-29T11:28:53.777Z,69.50
2022-07-29T11:31:34.570Z,71.70
2022-07-29T11:34:21.080Z,77.10
2022-07-29T11:37:17.807Z,93.10
2022-07-29T11:39:47.645Z,95.40
2022-07-29T11:42:48.565Z,87.20
2022-07-29T11:45:43.489Z,90.30
2022-07-29T11:48:29.540Z,96.20
2022-07-29T11:51:01.527Z,98.30
2022-07-29T11:53:32.713Z,94.70
2022-07-29T11:58:51.954Z,91.20
2022-07-29T12:01:22.299Z,93.90
2022-07-29T12:04:03.975Z,93.60
2022-07-29T12:06:34.905Z,96.20
2022-07-29T12:07:02.363Z,95.00
2022-07-29T12:09:08.314Z,97.10
2022-07-29T12:11:42.471Z,97.80
2022-07-29T12:14:28.719Z,97.80
2022-07-29T12:16:57.027Z,95.80
2022-07-29T12:19:26.959Z,97.60
2022-07-29T12:21:59.661Z,98.40
2022-07-29T12:24:44.894Z,97.90
2022-07-29T12:27:13.896Z,98.60
2022-07-29T12:29:47.953Z,99.70
2022-07-29T12:32:19.741Z,99.90
2022-07-29T12:34:48.383Z,99.90
2022-07-29T12:37:16.615Z,99.90
2022-07-29T12:39:44.895Z,99.90
2022-07-29T12:42:14.850Z,99.90
2022-07-29T12:44:49.114Z,95.20
2022-07-29T12:47:17.326Z,96.70
2022-07-29T12:49:45.383Z,97.80
2022-07-29T12:52:26.565Z,99.90
2022-07-29T12:54:54.657Z,94.80
2022-07-29T12:57:23.282Z,94.10
2022-07-29T13:00:04.711Z,94.50
2022-07-29T13:02:32.859Z,94.70
2022-07-29T13:05:02.530Z,95.90
2022-07-29T13:07:55.274Z,95.50
2022-07-29T13:10:24.559Z,98.10
2022-07-29T13:13:07.428Z,99.30
2022-07-29T13:15:37.361Z,98.00
2022-07-29T13:18:06.187Z,98.80
2022-07-29T13:20:34.471Z,96.60
2022-07-29T13:23:02.927Z,95.20
2022-07-29T13:25:32.707Z,95.40
2022-07-29T13:28:01.442Z,96.80
2022-07-29T13:30:30.115Z,97.00
2022-07-29T13:32:59.620Z,99.90
2022-07-29T13:35:30.623Z,99.90
2022-07-29T13:37:58.657Z,99.90
2022-07-29T13:40:27.264Z,98.90
2022-07-29T13:42:55.268Z,96.30
2022-07-29T13:45:23.449Z,96.00
2022-07-29T13:47:51.440Z,95.90
2022-07-29T13:50:20.850Z,88.90
2022-07-29T13:52:49.503Z,86.90
2022-07-29T13:55:17.508Z,94.80
2022-07-29T13:57:45.527Z,97.10
2022-07-29T14:00:14.789Z,92.70
2022-07-29T14:02:42.855Z,89.00
2022-07-29T14:05:11.675Z,86.50
2022-07-29T14:07:41.051Z,88.30
2022-07-29T14:10:09.948Z,89.50
2022-07-29T14:12:38.034Z,91.50
2022-07-29T14:15:07.000Z,83.30
2022-07-29T14:17:35.047Z,88.70
2022-07-29T14:20:03.366Z,88.70
2022-07-29T14:22:31.431Z,82.70
2022-07-29T14:25:03.463Z,80.80
2022-07-29T14:27:42.885Z,85.40
2022-07-29T14:30:12.214Z,80.60
2022-07-29T14:32:40.260Z,89.30
2022-07-29T14:35:09.075Z,82.40
2022-07-29T14:37:40.224Z,84.80
2022-07-29T14:40:11.760Z,86.70
2022-07-29T14:42:40.224Z,89.20
2022-07-29T14:45:09.920Z,90.30
2022-07-29T14:47:38.802Z,85.80
2022-07-29T14:50:07.853Z,85.20
2022-07-29T14:52:36.759Z,83.80
2022-07-29T14:55:19.639Z,87.30
2022-07-29T14:57:51.078Z,88.30
2022-07-29T15:00:20.191Z,90.50
2022-07-29T15:03:03.761Z,90.00
2022-07-29T15:05:36.418Z,89.80
2022-07-29T15:08:05.958Z,91.30
2022-07-29T15:10:34.651Z,86.90
2022-07-29T15:13:04.904Z,89.80
2022-07-29T15:15:33.528Z,86.10
2022-07-29T15:18:02.315Z,82.90
2022-07-29T15:20:30.878Z,81.10
2022-07-29T15:22:59.761Z,83.80
2022-07-29T15:25:28.913Z,90.00
2022-07-29T15:28:01.077Z,75.80
2022-07-29T15:30:34.554Z,81.30
2022-07-29T15:33:05.047Z,73.90
2022-07-29T15:35:40.063Z,78.00
2022-07-29T15:38:11.949Z,71.70
2022-07-29T15:40:42.354Z,74.10
2022-07-29T15:43:11.204Z,76.40
2022-07-29T15:46:02.906Z,80.10
2022-07-29T15:48:32.345Z,71.90
2022-07-29T15:51:00.991Z,65.70
2022-07-29T15:53:29.588Z,68.00
2022-07-29T15:55:57.645Z,64.50
2022-07-29T15:58:25.594Z,72.80
2022-07-29T16:00:55.125Z,66.80
2022-07-29T16:03:24.622Z,68.00
2022-07-29T16:05:52.615Z,74.90
2022-07-29T16:08:20.650Z,78.10
2022-07-29T16:10:48.675Z,72.20
2022-07-29T16:13:17.089Z,70.00
2022-07-29T16:16:00.607Z,66.80
2022-07-29T16:18:32.719Z,71.90
2022-07-29T16:21:00.744Z,66.50
2022-07-29T16:23:28.773Z,73.30
2022-07-29T16:25:59.979Z,62.90
2022-07-29T16:28:28.414Z,63.40
2022-07-29T16:30:57.158Z,64.80
2022-07-29T16:33:25.346Z,60.80
2022-07-29T16:35:54.725Z,62.40
2022-07-29T16:38:22.790Z,55.80
2022-07-29T16:40:50.844Z,58.00
2022-07-29T16:43:18.900Z,63.30
2022-07-29T16:45:47.243Z,65.90
2022-07-29T16:48:18.179Z,65.60
2022-07-29T16:50:46.924Z,66.10
2022-07-29T16:53:16.353Z,68.40
2022-07-29T16:55:44.364Z,70.60
2022-07-29T16:58:12.497Z,75.20
2022-07-29T17:00:40.867Z,75.80
2022-07-29T17:03:09.035Z,78.40
2022-07-29T17:05:52.432Z,77.90
2022-07-29T17:08:23.675Z,78.60
2022-07-29T17:10:51.725Z,72.60
2022-07-29T17:13:19.787Z,79.00
2022-07-29T17:15:47.917Z,82.20
2022-07-29T17:18:16.076Z,83.30
2022-07-29T17:20:44.132Z,84.00
2022-07-29T17:23:12.116Z,85.10
2022-07-29T17:25:41.467Z,85.90
2022-07-29T17:28:09.541Z,87.60
2022-07-29T17:30:37.549Z,86.10
2022-07-29T17:33:05.611Z,86.90
2022-07-29T17:35:51.000Z,84.60
2022-07-29T17:38:19.009Z,85.70
2022-07-29T17:40:48.356Z,86.10
2022-07-29T17:43:16.389Z,87.60
2022-07-29T17:45:50.358Z,86.70
2022-07-29T17:48:19.234Z,84.70
2022-07-29T17:50:48.257Z,84.60
2022-07-29T17:53:16.924Z,86.50
2022-07-29T17:55:45.757Z,83.60
2022-07-29T17:58:16.827Z,83.30
2022-07-29T18:00:44.900Z,83.00
2022-07-29T18:03:13.134Z,85.20
2022-07-29T18:05:41.228Z,87.10
2022-07-29T18:08:09.293Z,87.80
2022-07-29T18:10:37.551Z,83.50
2022-07-29T18:13:05.626Z,86.30
2022-07-29T18:15:35.180Z,87.70
2022-07-29T18:18:03.223Z,81.40
2022-07-29T18:20:31.254Z,82.90
2022-07-29T18:22:59.316Z,82.80
2022-07-29T18:25:28.819Z,85.00
2022-07-29T18:28:00.254Z,85.30
2022-07-29T18:30:28.916Z,86.60
2022-07-29T18:33:20.657Z,85.80
2022-07-29T18:35:46.807Z,84.10
2022-07-29T18:38:14.908Z,83.40
2022-07-29T18:40:43.075Z,86.40
2022-07-29T18:43:11.291Z,88.00
2022-07-29T18:45:39.820Z,89.50
2022-07-29T18:48:12.932Z,90.00
2022-07-29T18:50:41.447Z,90.60
2022-07-29T18:53:09.498Z,90.40
2022-07-29T18:55:37.545Z,91.00
2022-07-29T18:58:05.596Z,91.20
2022-07-29T19:00:33.649Z,92.10
2022-07-29T19:03:03.113Z,93.70
2022-07-29T19:05:33.007Z,94.50
2022-07-29T19:08:01.161Z,94.20
2022-07-29T19:10:29.207Z,94.30
2022-07-29T19:12:57.828Z,94.50
2022-07-29T19:15:26.218Z,95.10
2022-07-29T19:17:57.797Z,94.10
2022-07-29T19:20:29.270Z,94.50
2022-07-29T19:22:58.718Z,94.00
2022-07-29T19:25:27.012Z,95.40
2022-07-29T19:27:55.054Z,96.70
2022-07-29T19:30:23.223Z,97.40
2022-07-29T19:32:51.231Z,97.30
2022-07-29T19:35:28.008Z,98.20
2022-07-29T19:37:59.837Z,98.70
2022-07-29T19:40:28.532Z,98.40
2022-07-29T19:42:57.313Z,98.60
2022-07-29T19:45:26.061Z,98.30
2022-07-29T19:47:59.061Z,97.40
2022-07-29T19:50:29.319Z,97.60
2022-07-29T19:52:59.023Z,98.60
2022-07-29T19:55:27.221Z,99.00
2022-07-29T19:57:55.250Z,97.30
2022-07-29T20:00:25.125Z,96.80
2022-07-29T20:02:54.055Z,95.70
2022-07-29T20:05:22.122Z,96.30
2022-07-29T20:07:56.379Z,96.80
2022-07-29T20:10:25.989Z,97.40
2022-07-29T20:12:55.048Z,98.30
2022-07-29T20:15:23.652Z,97.10
2022-07-29T20:17:56.615Z,96.80
2022-07-29T20:20:25.771Z,97.00
2022-07-29T20:22:53.953Z,97.50
2022-07-29T20:25:22.011Z,97.80
2022-07-29T20:27:52.433Z,99.10
2022-07-29T20:30:20.861Z,98.30
2022-07-29T20:32:49.363Z,98.30
2022-07-29T20:35:19.799Z,98.30
2022-07-29T20:37:52.400Z,98.90
2022-07-29T20:40:25.236Z,97.80
2022-07-29T20:42:55.005Z,96.70
2022-07-29T20:45:23.623Z,96.80
2022-07-29T20:47:52.390Z,96.50
2022-07-29T20:50:23.795Z,96.50
2022-07-29T20:52:52.608Z,95.60
2022-07-29T20:55:20.924Z,95.70
2022-07-29T20:57:49.258Z,94.30
2022-07-29T21:00:19.052Z,94.80
2022-07-29T21:02:47.407Z,94.70
2022-07-29T21:05:15.905Z,94.30
2022-07-29T21:07:44.083Z,94.90
2022-07-29T21:10:12.271Z,94.80
2022-07-29T21:12:40.304Z,94.50
2022-07-29T21:15:13.308Z,93.90
2022-07-29T21:17:46.859Z,92.90
2022-07-29T21:20:15.712Z,93.50
2022-07-29T21:22:44.272Z,92.90
2022-07-29T21:25:13.210Z,91.90
2022-07-29T21:27:58.611Z,92.30
2022-07-29T21:30:26.682Z,92.00
2022-07-29T21:32:56.263Z,92.00
2022-07-29T21:35:35.860Z,93.30
2022-07-29T21:38:12.535Z,93.70
2022-07-29T21:40:40.625Z,91.30
2022-07-29T21:43:08.630Z,91.80
2022-07-29T21:45:37.875Z,92.10
2022-07-29T21:48:07.682Z,86.90
2022-07-29T21:50:36.532Z,89.00
2022-07-29T21:53:04.558Z,90.20
2022-07-29T21:55:33.841Z,85.20
2022-07-29T21:58:01.990Z,89.30
2022-07-29T22:00:31.103Z,90.60
2022-07-29T22:02:59.241Z,91.10
2022-07-29T22:05:29.099Z,90.00
2022-07-29T22:07:57.671Z,89.90
2022-07-29T22:10:26.233Z,90.90
2022-07-29T22:12:55.766Z,87.30
2022-07-29T22:15:24.354Z,82.50
2022-07-29T22:17:53.038Z,81.40
2022-07-29T22:20:21.576Z,76.40
2022-07-29T22:22:51.118Z,85.80
2022-07-29T22:25:19.281Z,85.20
2022-07-29T22:27:47.418Z,84.50
2022-07-29T22:30:16.073Z,79.10
2022-07-29T22:32:44.305Z,79.60
2022-07-29T22:35:12.551Z,83.50
2022-07-29T22:37:40.605Z,82.70
2022-07-29T22:40:10.835Z,83.30
2022-07-29T22:42:40.773Z,80.80
2022-07-29T22:45:10.644Z,82.30
2022-07-29T22:47:47.973Z,77.90
2022-07-29T22:50:17.385Z,81.80
2022-07-29T22:52:45.568Z,84.30
2022-07-29T22:55:15.434Z,82.30
2022-07-29T22:57:43.956Z,84.10
2022-07-29T23:00:13.732Z,84.00
2022-07-29T23:02:42.162Z,87.00
2022-07-29T23:05:11.316Z,86.10
2022-07-29T23:07:39.439Z,82.50
2022-07-29T23:10:08.359Z,83.80
2022-07-29T23:12:37.883Z,80.90
2022-07-29T23:15:06.704Z,78.90
2022-07-29T23:17:36.066Z,76.90
2022-07-29T23:20:06.728Z,72.90
2022-07-29T23:22:34.855Z,73.50
2022-07-29T23:25:02.948Z,76.50
2022-07-29T23:27:30.981Z,78.40
2022-07-29T23:30:00.362Z,74.80
2022-07-29T23:32:28.387Z,79.40
2022-07-29T23:34:56.429Z,78.00
2022-07-29T23:37:24.696Z,81.30
2022-07-29T23:39:54.985Z,82.30
2022-07-29T23:42:23.055Z,85.00
2022-07-29T23:44:51.274Z,82.90
2022-07-29T23:47:20.717Z,78.20
2022-07-29T23:49:49.968Z,76.60
2022-07-29T23:52:19.655Z,79.50
2022-07-29T23:54:47.856Z,85.10
2022-07-29T23:57:15.911Z,88.20
2022-07-29T23:59:44.010Z,88.80
